Main page
METAR-TAF:

METAR-TAF

Airports :

Alfredo Vásquez Cobo International Airport

Leticia, Colombia

latitude: 04-10S, longitude: 069-57W, elevation: 84 m

Current weather observation

The report was made 42 minutes ago, at 13:00 UTC
Calm wind
Temperature 25°C
Humidity 100%
Pressure 1015 hPa
Visibility 10 km or more
Scattered clouds at a height of 1000 ft
Broken clouds at a height of 10000 ft

METAR: SKLT 281300Z 00000KT 9999 SCT010 BKN100 25/25 A2997

Time: 08:42 (13:42 UTC)

Forecast

The report was made 3 hours and 12 minutes ago, at 10:30 UTC
Forecast valid from 28 at 12 UTC to 29 at 12 UTC
Wind 2 kt from variable directions
Visibility 10 km or more
Scattered clouds at a height of 1500 ft
Scattered clouds at a height of 8000 ft
Probability 40% :
Temporary
from 28 at 17 UTC to 28 at 21 UTC
Broken clouds at a height of 1500 ft, Cumulonimbus.
drizzle, rain

TAF: SKLT 281030Z 2812/2912 VRB02KT 9999 SCT015 SCT080 PROB40 TEMPO 2817/2821 DZRA BKN015CB TX30/2818Z TN22/2910Z

Weather observations and forecasts of more than 4000 airports (METAR and TAF reports).

The available stations are represented by yellow and red dots on the map.

Hover mouse over dot to see the name of the station.

Then click to see weather observations and forecasts.

To change the map : click on the green buttons with a black cross to zoom in, on the green button with a dash to zoom out, or on the green arrows for adjacent maps.


METAR-TAF: